Time;durP1;ratioP1;P1;durP2;ratioP2;P2;SDS_P1;SDS_P2;PMS_P1;PMS_P2;Temp;Humidity;BMP_temperature;BMP_pressure;BME280_temperature;BME280_humidity;BME280_pressure;Samples;Min_cycle;Max_cycle;Signal;HPM_P1;HPM_P2
2021/07/14 00:00:41;;;;;;;10.65;2.90;;;16.60;99.90;;;;;;5039074;28;20098;-63
2021/07/14 00:03:07;;;;;;;5.03;2.58;;;16.60;99.90;;;;;;5039588;28;20153;-65
2021/07/14 00:05:34;;;;;;;5.22;3.15;;;16.60;99.90;;;;;;5038179;28;20052;-61
2021/07/14 00:08:02;;;;;;;13.38;3.25;;;16.60;99.90;;;;;;5038211;28;20057;-64
2021/07/14 00:10:31;;;;;;;10.88;3.30;;;16.70;99.90;;;;;;5038670;28;20049;-60
2021/07/14 00:13:03;;;;;;;9.00;3.30;;;16.60;99.90;;;;;;5038126;28;20056;-61
2021/07/14 00:23:46;;;;;;;11.65;3.55;;;16.80;99.90;;;;;;5038774;28;20121;-65
2021/07/14 00:26:13;;;;;;;6.43;3.45;;;16.70;99.90;;;;;;5038892;28;20094;-61
2021/07/14 00:28:42;;;;;;;7.40;3.22;;;16.70;99.90;;;;;;5037809;28;20141;-65
2021/07/14 00:31:14;;;;;;;10.70;3.83;;;16.70;99.90;;;;;;5037080;28;20084;-63
2021/07/14 00:33:41;;;;;;;8.90;3.40;;;16.50;99.90;;;;;;5041885;28;20071;-63
2021/07/14 00:36:08;;;;;;;8.65;3.95;;;16.40;99.90;;;;;;5043535;28;20125;-60
2021/07/14 00:38:35;;;;;;;13.07;3.38;;;16.50;99.90;;;;;;5041335;28;20137;-65
2021/07/14 00:41:03;;;;;;;7.93;3.67;;;16.40;99.90;;;;;;5043717;28;20076;-61
2021/07/14 00:43:30;;;;;;;13.65;3.88;;;16.30;99.90;;;;;;5043416;28;21832;-62
2021/07/14 00:46:19;;;;;;;11.55;3.95;;;16.30;99.90;;;;;;5043260;28;20048;-65
2021/07/14 00:48:47;;;;;;;8.90;4.13;;;16.30;99.90;;;;;;5042226;28;20118;-65
2021/07/14 00:51:14;;;;;;;5.88;3.28;;;16.40;99.90;;;;;;5042324;28;20052;-63
2021/07/14 00:53:41;;;;;;;11.00;3.58;;;16.50;99.90;;;;;;5043204;28;20484;-65
2021/07/14 00:56:09;;;;;;;10.93;3.75;;;16.40;99.90;;;;;;5042480;28;20056;-64
2021/07/14 00:58:36;;;;;;;7.68;3.20;;;16.40;99.90;;;;;;5041660;28;20098;-61
2021/07/14 01:01:04;;;;;;;7.63;3.75;;;16.40;99.90;;;;;;5043183;28;20056;-62
2021/07/14 01:03:39;;;;;;;8.77;3.25;;;16.40;99.90;;;;;;5041726;28;20056;-61
2021/07/14 01:06:14;;;;;;;7.57;3.60;;;16.30;99.90;;;;;;5043574;28;20505;-62
2021/07/14 01:08:47;;;;;;;8.20;3.60;;;16.30;99.90;;;;;;5041439;28;20092;-63
2021/07/14 01:11:20;;;;;;;9.50;3.58;;;16.30;99.90;;;;;;5041020;28;20114;-61
2021/07/14 01:13:55;;;;;;;14.02;3.80;;;16.30;99.90;;;;;;5043244;28;20060;-62
2021/07/14 01:16:24;;;;;;;10.23;4.18;;;16.30;99.90;;;;;;5042696;28;20049;-62
2021/07/14 01:18:59;;;;;;;5.07;3.15;;;16.30;99.90;;;;;;5041168;28;20486;-61
2021/07/14 01:21:31;;;;;;;9.15;4.10;;;16.30;99.90;;;;;;5042632;28;20052;-64
2021/07/14 01:24:08;;;;;;;14.73;4.03;;;16.30;99.90;;;;;;5041820;28;20045;-63
2021/07/14 01:26:39;;;;;;;;;;;16.20;99.90;;;;;;5043055;28;20487;-64
2021/07/14 01:29:11;;;;;;;15.30;4.72;;;16.20;99.90;;;;;;5040728;28;19924;-61
2021/07/14 01:31:39;;;;;;;8.88;3.75;;;16.20;99.90;;;;;;5041056;28;20052;-64
2021/07/14 01:34:08;;;;;;;10.80;3.30;;;16.20;99.90;;;;;;5040637;28;20102;-60
2021/07/14 01:36:38;;;;;;;7.43;3.83;;;16.20;99.90;;;;;;5041637;28;20897;-63
2021/07/14 01:39:06;;;;;;;9.75;2.90;;;16.20;99.90;;;;;;5040065;28;20114;-62
2021/07/14 01:41:37;;;;;;;6.90;3.15;;;16.10;99.90;;;;;;5040217;28;20114;-64
2021/07/14 01:44:05;;;;;;;5.97;3.30;;;16.10;99.90;;;;;;5040085;28;20079;-65
2021/07/14 01:46:37;;;;;;;8.65;3.72;;;16.10;99.90;;;;;;5040573;28;20063;-67
2021/07/14 01:49:07;;;;;;;9.70;3.65;;;16.10;99.90;;;;;;5039738;28;20106;-67
2021/07/14 01:51:38;;;;;;;7.18;3.85;;;16.00;99.90;;;;;;5040388;28;20060;-66
2021/07/14 01:54:06;;;;;;;12.27;3.75;;;16.00;99.90;;;;;;5040336;28;20048;-66
2021/07/14 01:56:37;;;;;;;6.75;3.40;;;16.00;99.90;;;;;;5039430;28;20117;-64
2021/07/14 01:59:05;;;;;;;10.25;3.80;;;15.90;99.90;;;;;;5040241;28;20145;-63
2021/07/14 02:01:38;;;;;;;8.05;4.10;;;15.90;99.90;;;;;;5039515;28;20105;-62
2021/07/14 02:06:51;;;;;;;10.15;3.72;;;15.90;99.90;;;;;;5040858;28;20055;-62
2021/07/14 02:09:18;;;;;;;10.57;4.22;;;15.90;99.90;;;;;;5037990;28;20048;-63
2021/07/14 02:11:48;;;;;;;10.93;4.55;;;15.90;99.90;;;;;;5040095;28;20052;-66
2021/07/14 02:14:18;;;;;;;15.23;4.57;;;15.90;99.90;;;;;;5041429;28;20048;-66
2021/07/14 02:16:49;;;;;;;7.07;3.70;;;15.80;99.90;;;;;;5040583;28;20136;-67
2021/07/14 02:19:19;;;;;;;14.25;4.43;;;15.80;99.90;;;;;;5039165;28;20216;-66
2021/07/14 02:21:46;;;;;;;7.28;3.90;;;15.80;99.90;;;;;;5039807;28;20170;-65
2021/07/14 02:24:14;;;;;;;8.10;4.07;;;15.70;99.90;;;;;;5038821;28;20080;-63
2021/07/14 02:26:42;;;;;;;8.35;3.72;;;15.80;99.90;;;;;;5040321;28;20063;-63
2021/07/14 02:29:09;;;;;;;10.30;4.57;;;15.70;99.90;;;;;;5040327;28;20151;-66
2021/07/14 02:31:37;;;;;;;11.07;4.75;;;15.70;99.90;;;;;;5039919;28;20084;-66
2021/07/14 02:34:08;;;;;;;8.43;4.35;;;15.70;99.90;;;;;;5040402;28;20155;-64
2021/07/14 02:36:36;;;;;;;10.93;4.35;;;15.70;99.90;;;;;;5040867;28;20056;-65
2021/07/14 02:39:06;;;;;;;10.15;4.22;;;15.70;99.90;;;;;;5038105;28;20053;-65
2021/07/14 02:41:39;;;;;;;11.48;4.10;;;15.70;99.90;;;;;;5038645;28;20045;-67
2021/07/14 02:44:10;;;;;;;10.75;4.47;;;15.60;99.90;;;;;;5039865;28;20102;-63
2021/07/14 02:46:41;;;;;;;10.23;4.45;;;15.70;99.90;;;;;;5039264;28;20079;-62
2021/07/14 02:49:13;;;;;;;10.20;4.97;;;15.70;99.90;;;;;;5038529;28;20133;-64
2021/07/14 02:51:42;;;;;;;12.88;4.50;;;15.70;99.90;;;;;;5040413;28;20080;-63
2021/07/14 02:54:16;;;;;;;13.45;4.60;;;15.70;99.90;;;;;;5037472;28;20954;-66
2021/07/14 02:56:44;;;;;;;10.38;5.55;;;15.70;99.90;;;;;;5039185;28;20106;-63
2021/07/14 02:59:12;;;;;;;12.00;5.22;;;15.70;99.90;;;;;;5037101;28;20084;-65
2021/07/14 03:01:43;;;;;;;12.20;5.32;;;15.70;99.90;;;;;;5039047;28;20056;-67
2021/07/14 03:04:13;;;;;;;15.02;5.30;;;15.70;99.90;;;;;;5038096;28;21143;-63
2021/07/14 03:06:40;;;;;;;8.32;4.53;;;15.70;99.90;;;;;;5039665;28;20118;-63
2021/07/14 03:09:11;;;;;;;12.73;5.70;;;15.70;99.90;;;;;;5038174;28;20513;-64
2021/07/14 03:11:40;;;;;;;11.57;5.03;;;15.70;99.90;;;;;;5039148;28;20060;-65
2021/07/14 03:14:10;;;;;;;9.07;5.20;;;15.70;99.90;;;;;;5037797;28;20109;-64
2021/07/14 03:16:38;;;;;;;7.75;4.82;;;15.60;99.90;;;;;;5038266;28;20084;-62
2021/07/14 03:19:07;;;;;;;10.60;5.45;;;15.70;99.90;;;;;;5038011;28;20102;-63
2021/07/14 03:21:36;;;;;;;11.05;6.75;;;15.60;99.90;;;;;;5039586;28;20052;-62
2021/07/14 03:24:07;;;;;;;12.73;5.45;;;15.50;99.90;;;;;;5038752;28;20386;-61
2021/07/14 03:26:37;;;;;;;11.05;5.43;;;15.60;99.90;;;;;;5038730;28;20053;-63
2021/07/14 03:29:05;;;;;;;10.30;6.05;;;15.50;99.90;;;;;;5037601;28;21268;-64
2021/07/14 03:31:33;;;;;;;9.63;5.63;;;15.50;99.90;;;;;;5038416;28;20048;-66
2021/07/14 03:34:01;;;;;;;11.35;5.78;;;15.50;99.90;;;;;;5036422;28;20080;-61
2021/07/14 03:36:29;;;;;;;12.68;6.10;;;15.60;99.90;;;;;;5033519;28;20036;-60
2021/07/14 03:38:59;;;;;;;12.98;5.60;;;15.60;99.90;;;;;;5035316;28;20056;-62
2021/07/14 03:41:26;;;;;;;10.15;5.65;;;15.60;99.90;;;;;;5032126;28;20049;-62
2021/07/14 03:43:56;;;;;;;12.95;6.25;;;15.60;99.90;;;;;;5037464;28;20051;-61
2021/07/14 03:46:24;;;;;;;13.20;5.95;;;15.60;99.90;;;;;;5038281;28;20143;-62
2021/07/14 03:48:53;;;;;;;11.40;6.25;;;15.70;99.90;;;;;;5038154;28;20497;-61
2021/07/14 03:51:24;;;;;;;15.82;5.90;;;15.60;99.90;;;;;;5036942;28;20045;-64
2021/07/14 03:53:52;;;;;;;10.23;6.20;;;15.50;99.90;;;;;;5038219;28;20052;-64
2021/07/14 03:56:24;;;;;;;13.20;6.38;;;15.60;99.90;;;;;;5038112;28;20163;-63
2021/07/14 03:58:52;;;;;;;13.20;6.15;;;15.60;99.90;;;;;;5038066;28;20064;-64
2021/07/14 04:01:20;;;;;;;13.35;6.13;;;15.70;99.90;;;;;;5038122;28;20056;-62
2021/07/14 04:03:47;;;;;;;10.43;5.90;;;15.70;99.90;;;;;;5037753;28;20052;-64
2021/07/14 04:06:15;;;;;;;12.60;5.88;;;15.60;99.90;;;;;;5037762;28;20048;-62
2021/07/14 04:08:45;;;;;;;12.27;5.53;;;15.60;99.90;;;;;;5042911;28;20059;-60
2021/07/14 04:11:12;;;;;;;13.48;6.07;;;15.70;99.90;;;;;;5045040;28;20052;-61
2021/07/14 04:13:43;;;;;;;20.13;5.72;;;15.70;99.90;;;;;;5045057;28;20063;-64
2021/07/14 04:16:10;;;;;;;18.33;5.80;;;15.70;99.90;;;;;;5043414;28;20052;-63
2021/07/14 04:18:37;;;;;;;11.40;5.55;;;15.70;99.90;;;;;;5045209;28;20444;-62
2021/07/14 04:21:05;;;;;;;9.82;5.60;;;15.80;99.90;;;;;;5043814;28;21178;-62
2021/07/14 04:23:32;;;;;;;9.93;6.10;;;15.70;99.90;;;;;;5044874;28;20105;-64
2021/07/14 04:25:59;;;;;;;11.55;5.72;;;15.70;99.90;;;;;;5045055;28;20067;-62
2021/07/14 04:28:27;;;;;;;13.80;5.88;;;15.70;99.90;;;;;;5042886;28;20040;-64
2021/07/14 04:30:55;;;;;;;8.73;5.40;;;15.70;99.90;;;;;;5044283;28;20170;-60
2021/07/14 04:33:22;;;;;;;12.60;5.57;;;15.70;99.90;;;;;;5043802;28;20051;-64
2021/07/14 04:35:50;;;;;;;12.73;6.57;;;15.80;99.90;;;;;;5045479;28;20056;-60
2021/07/14 04:38:17;;;;;;;10.65;5.60;;;15.80;99.90;;;;;;5045183;28;20060;-64
2021/07/14 04:40:45;;;;;;;12.77;5.70;;;15.90;99.90;;;;;;5052437;28;20098;-64
2021/07/14 04:43:12;;;;;;;11.82;6.38;;;15.90;99.90;;;;;;5054463;28;20397;-62
2021/07/14 04:45:39;;;;;;;15.05;6.68;;;15.80;99.90;;;;;;5054058;28;20113;-64
2021/07/14 04:48:08;;;;;;;18.80;6.15;;;15.80;99.90;;;;;;5055551;28;20060;-63
2021/07/14 04:50:35;;;;;;;11.75;6.35;;;15.90;99.90;;;;;;5051095;28;20169;-64
2021/07/14 04:53:02;;;;;;;12.10;6.45;;;16.00;99.90;;;;;;5054618;28;20080;-61
2021/07/14 04:55:29;;;;;;;13.95;6.10;;;16.00;99.90;;;;;;5054916;28;20057;-63
2021/07/14 04:57:56;;;;;;;15.40;5.57;;;16.10;99.90;;;;;;5053175;28;20139;-62
2021/07/14 05:00:23;;;;;;;12.65;5.28;;;16.30;99.90;;;;;;5054698;28;20049;-64
2021/07/14 05:02:50;;;;;;;10.02;5.57;;;16.20;99.90;;;;;;5045756;28;20052;-63
2021/07/14 05:05:18;;;;;;;13.10;4.88;;;16.10;99.90;;;;;;5045683;28;20135;-64
2021/07/14 05:07:47;;;;;;;11.40;5.03;;;16.10;99.90;;;;;;5046173;28;20957;-62
2021/07/14 05:10:14;;;;;;;11.35;5.68;;;16.10;99.90;;;;;;5047385;28;20144;-63
2021/07/14 05:12:41;;;;;;;15.38;5.38;;;16.20;99.90;;;;;;5046241;28;20083;-65
2021/07/14 05:15:09;;;;;;;9.50;5.40;;;16.20;99.90;;;;;;5046910;28;20084;-64
2021/07/14 05:17:36;;;;;;;11.60;5.50;;;16.10;99.90;;;;;;5042532;28;20133;-62
2021/07/14 05:20:04;;;;;;;11.25;5.75;;;16.10;99.90;;;;;;5039588;28;20057;-65
2021/07/14 05:22:32;;;;;;;8.63;5.18;;;16.10;99.90;;;;;;5042793;28;20080;-62
2021/07/14 05:24:59;;;;;;;10.85;5.28;;;16.20;99.90;;;;;;5041398;28;20071;-62
2021/07/14 05:27:26;;;;;;;8.68;5.60;;;16.30;99.90;;;;;;5042021;28;20144;-65
2021/07/14 05:29:54;;;;;;;10.75;5.13;;;16.30;99.90;;;;;;5042497;28;20052;-66
2021/07/14 05:32:21;;;;;;;14.68;5.82;;;16.30;99.90;;;;;;5042192;28;20062;-65
2021/07/14 05:34:48;;;;;;;10.10;5.90;;;16.20;99.90;;;;;;5044617;28;20131;-61
2021/07/14 05:37:15;;;;;;;13.82;5.80;;;16.20;99.90;;;;;;5042988;28;20651;-63
2021/07/14 05:39:43;;;;;;;12.13;5.55;;;16.30;99.90;;;;;;5044088;28;20048;-63
2021/07/14 05:42:10;;;;;;;10.65;5.45;;;16.20;99.90;;;;;;5041295;28;20102;-62
2021/07/14 05:44:37;;;;;;;12.13;5.15;;;16.30;99.90;;;;;;5040863;28;20052;-66
2021/07/14 05:47:05;;;;;;;11.27;5.63;;;16.30;99.90;;;;;;5043345;28;20463;-63
2021/07/14 05:49:32;;;;;;;10.50;5.82;;;16.30;99.90;;;;;;5037533;28;20064;-66
2021/07/14 05:52:01;;;;;;;20.58;5.70;;;16.40;99.90;;;;;;5041155;28;20114;-65
2021/07/14 05:54:28;;;;;;;8.73;5.55;;;16.40;99.90;;;;;;5042344;28;20086;-65
2021/07/14 05:56:57;;;;;;;11.02;5.07;;;16.20;99.90;;;;;;5038786;28;20576;-62
2021/07/14 05:59:24;;;;;;;10.45;4.85;;;16.40;99.90;;;;;;5046094;28;20799;-65
2021/07/14 06:01:52;;;;;;;8.07;5.28;;;16.40;99.90;;;;;;5038076;28;20106;-67
2021/07/14 06:04:19;;;;;;;6.63;4.28;;;16.40;99.90;;;;;;5042045;28;20479;-63
2021/07/14 06:06:46;;;;;;;8.90;4.80;;;16.30;99.90;;;;;;5044331;28;20098;-62
2021/07/14 06:09:13;;;;;;;9.02;4.28;;;16.30;99.90;;;;;;5040921;28;20163;-66
2021/07/14 06:11:41;;;;;;;9.57;4.53;;;16.30;99.90;;;;;;5041762;28;20048;-63
2021/07/14 06:14:09;;;;;;;9.95;4.70;;;16.30;99.90;;;;;;5043532;28;20067;-64
2021/07/14 06:16:36;;;;;;;7.68;4.03;;;16.40;99.90;;;;;;5041806;28;20102;-63
2021/07/14 06:19:03;;;;;;;10.45;4.75;;;16.30;99.90;;;;;;5041588;28;20495;-63
2021/07/14 06:21:30;;;;;;;11.85;4.93;;;16.20;99.90;;;;;;5041842;28;20077;-63
2021/07/14 06:23:57;;;;;;;8.40;3.95;;;16.20;99.90;;;;;;5042861;28;20128;-63
2021/07/14 06:26:24;;;;;;;11.63;4.85;;;16.00;99.90;;;;;;5044519;28;20141;-65
2021/07/14 06:28:51;;;;;;;8.55;4.53;;;16.00;99.90;;;;;;5041662;28;20157;-65
2021/07/14 06:31:19;;;;;;;6.25;4.00;;;16.10;99.90;;;;;;5041706;28;20124;-62
2021/07/14 06:33:46;;;;;;;7.53;3.55;;;16.20;99.90;;;;;;5042930;28;20080;-63
2021/07/14 06:36:13;;;;;;;7.20;3.78;;;16.20;99.90;;;;;;5040941;28;20072;-66
2021/07/14 06:38:40;;;;;;;10.32;3.55;;;16.10;99.90;;;;;;5040700;28;20052;-63
2021/07/14 06:41:08;;;;;;;5.43;3.33;;;16.10;99.90;;;;;;5041211;28;20072;-63
2021/07/14 06:43:45;;;;;;;7.72;2.95;;;16.20;99.90;;;;;;5042123;28;20056;-62
2021/07/14 06:46:14;;;;;;;5.13;3.20;;;16.20;99.90;;;;;;5040969;28;20508;-65
2021/07/14 06:48:42;;;;;;;5.07;3.20;;;16.30;99.90;;;;;;5041198;28;20466;-63
2021/07/14 06:51:10;;;;;;;5.55;3.22;;;16.30;99.90;;;;;;5042216;28;20088;-62
2021/07/14 06:53:38;;;;;;;5.70;2.83;;;16.40;99.90;;;;;;5042402;28;20056;-63
2021/07/14 06:56:06;;;;;;;5.32;2.95;;;16.40;99.90;;;;;;5041973;28;20086;-63
2021/07/14 06:58:36;;;;;;;5.50;3.78;;;16.40;99.90;;;;;;5039194;28;20076;-65
2021/07/14 07:01:03;;;;;;;7.85;2.88;;;16.50;99.90;;;;;;5041233;28;20064;-66
2021/07/14 07:03:30;;;;;;;6.50;3.00;;;16.60;99.90;;;;;;5041678;28;20076;-66
2021/07/14 07:05:58;;;;;;;5.18;2.63;;;16.60;99.90;;;;;;5042489;28;20060;-66
2021/07/14 07:08:25;;;;;;;4.82;2.40;;;16.70;99.90;;;;;;5042409;28;20497;-66
2021/07/14 07:10:52;;;;;;;6.40;3.15;;;16.70;99.90;;;;;;5040976;28;20056;-62
2021/07/14 07:13:19;;;;;;;6.25;2.88;;;16.70;99.90;;;;;;5041220;28;20114;-63
2021/07/14 07:15:46;;;;;;;5.63;3.03;;;16.80;99.90;;;;;;5041864;28;20056;-62
2021/07/14 07:18:14;;;;;;;7.18;2.63;;;16.90;99.90;;;;;;5043964;28;20076;-62
2021/07/14 07:20:41;;;;;;;4.80;2.72;;;16.60;99.90;;;;;;5044172;28;20155;-66
2021/07/14 07:23:10;;;;;;;4.85;2.72;;;16.80;99.90;;;;;;5041984;28;20513;-64
2021/07/14 07:25:38;;;;;;;8.70;2.97;;;16.70;99.90;;;;;;5041508;28;20084;-62
2021/07/14 07:28:12;;;;;;;5.43;2.80;;;16.80;99.90;;;;;;5039572;28;20461;-64
2021/07/14 07:30:39;;;;;;;6.32;2.80;;;16.80;99.90;;;;;;5041008;28;20078;-67
2021/07/14 07:33:06;;;;;;;5.70;2.80;;;16.80;99.90;;;;;;5040729;28;20515;-63
2021/07/14 07:35:33;;;;;;;5.20;2.97;;;16.80;99.90;;;;;;5039579;28;20209;-65
2021/07/14 07:38:00;;;;;;;5.75;3.15;;;16.70;99.90;;;;;;5041596;28;20447;-63
2021/07/14 07:40:29;;;;;;;7.28;3.20;;;16.60;99.90;;;;;;5041127;28;20507;-63
2021/07/14 07:42:56;;;;;;;6.38;3.63;;;16.70;99.90;;;;;;5042165;28;20056;-65
2021/07/14 07:45:23;;;;;;;8.98;3.58;;;16.60;99.90;;;;;;5042011;28;20446;-63
2021/07/14 07:47:50;;;;;;;5.20;3.30;;;16.50;99.90;;;;;;5040222;28;20083;-63
2021/07/14 07:50:17;;;;;;;8.60;3.60;;;16.30;99.90;;;;;;5042217;28;20045;-66
2021/07/14 07:52:44;;;;;;;8.60;4.18;;;16.10;99.90;;;;;;5040688;28;20521;-64
2021/07/14 07:55:15;;;;;;;8.32;3.83;;;16.00;99.90;;;;;;5041218;28;20109;-62
2021/07/14 07:57:44;;;;;;;8.43;4.25;;;16.10;99.90;;;;;;5040708;28;20835;-63
2021/07/14 08:00:14;;;;;;;7.90;4.20;;;16.10;99.90;;;;;;5041861;28;20646;-65
2021/07/14 08:02:41;;;;;;;7.72;4.40;;;16.10;99.90;;;;;;5039859;28;20088;-63
2021/07/14 08:05:09;;;;;;;7.38;3.83;;;16.00;99.90;;;;;;5042770;28;20131;-63
2021/07/14 08:07:37;;;;;;;9.00;4.40;;;16.10;99.90;;;;;;5038983;28;20084;-62
2021/07/14 08:10:04;;;;;;;12.00;4.97;;;16.10;99.90;;;;;;5040511;28;20189;-65
2021/07/14 08:12:31;;;;;;;7.78;4.53;;;16.20;99.90;;;;;;5041047;28;20467;-65
2021/07/14 08:15:00;;;;;;;8.65;4.45;;;16.30;99.90;;;;;;5042399;28;20052;-63
2021/07/14 08:17:27;;;;;;;8.63;4.78;;;16.30;99.90;;;;;;5039774;28;20044;-62
2021/07/14 08:19:54;;;;;;;10.68;5.70;;;16.30;99.90;;;;;;5040369;28;20052;-68
2021/07/14 08:22:21;;;;;;;6.93;4.57;;;16.40;99.90;;;;;;5040985;28;20094;-62
2021/07/14 08:24:49;;;;;;;9.60;5.32;;;16.40;99.90;;;;;;5040511;28;20048;-66
2021/07/14 08:27:16;;;;;;;7.13;4.55;;;16.40;99.90;;;;;;5039639;28;20437;-65
2021/07/14 08:29:44;;;;;;;12.40;6.30;;;16.40;99.90;;;;;;5039050;28;20060;-63
2021/07/14 08:32:12;;;;;;;8.40;5.30;;;16.50;99.90;;;;;;5038751;28;20067;-65
2021/07/14 08:34:39;;;;;;;8.15;5.20;;;16.60;99.90;;;;;;5039531;28;20056;-64
2021/07/14 08:37:06;;;;;;;10.52;5.88;;;16.50;99.90;;;;;;5040912;28;20070;-65
2021/07/14 08:39:34;;;;;;;10.30;5.97;;;16.50;99.90;;;;;;5037689;28;20060;-62
2021/07/14 08:42:03;;;;;;;9.25;6.03;;;16.50;99.90;;;;;;5040601;28;20459;-67
2021/07/14 08:44:34;;;;;;;9.02;5.97;;;16.50;99.90;;;;;;5039518;28;20053;-65
2021/07/14 08:47:01;;;;;;;8.75;5.88;;;16.60;99.90;;;;;;5040007;28;20513;-63
2021/07/14 08:49:30;;;;;;;9.48;5.82;;;16.60;99.90;;;;;;5035842;28;20080;-65
2021/07/14 08:51:57;;;;;;;11.10;5.43;;;16.60;99.90;;;;;;5036989;28;20048;-65
2021/07/14 08:54:25;;;;;;;10.75;7.15;;;16.50;99.90;;;;;;5039202;28;20113;-66
2021/07/14 08:56:52;;;;;;;9.45;6.25;;;16.60;99.90;;;;;;5042464;28;20091;-61
2021/07/14 08:59:19;;;;;;;12.23;6.10;;;16.60;99.90;;;;;;5046781;28;20048;-67
2021/07/14 09:01:47;;;;;;;9.75;6.60;;;16.60;99.90;;;;;;5043879;28;20061;-62
2021/07/14 09:04:14;;;;;;;12.00;6.65;;;16.40;99.90;;;;;;5040894;28;20126;-67
2021/07/14 09:06:43;;;;;;;8.63;6.05;;;16.50;99.90;;;;;;5041157;28;20084;-65
2021/07/14 09:09:10;;;;;;;11.35;7.22;;;16.60;99.90;;;;;;5040855;28;20127;-63
2021/07/14 09:11:54;;;;;;;9.68;6.57;;;16.70;99.90;;;;;;5041177;28;20129;-62
2021/07/14 09:14:32;;;;;;;9.30;6.60;;;16.70;99.90;;;;;;5040253;28;20062;-64
2021/07/14 09:17:00;;;;;;;13.52;7.03;;;16.70;99.90;;;;;;5041628;28;20056;-64
2021/07/14 09:19:29;;;;;;;10.85;7.15;;;16.70;99.90;;;;;;5039480;28;20049;-62
2021/07/14 09:21:59;;;;;;;11.85;6.88;;;16.70;99.90;;;;;;5041770;28;20044;-66
2021/07/14 09:24:28;;;;;;;12.52;7.00;;;16.70;99.90;;;;;;5041176;28;20106;-64
2021/07/14 09:26:57;;;;;;;11.88;7.03;;;16.80;99.90;;;;;;5040497;28;20089;-63
2021/07/14 09:29:24;;;;;;;11.52;7.20;;;16.90;99.90;;;;;;5039499;28;20082;-66
2021/07/14 09:31:53;;;;;;;12.95;7.05;;;16.70;99.90;;;;;;5042775;28;20084;-63
2021/07/14 09:34:28;;;;;;;10.82;7.18;;;16.90;99.90;;;;;;5040653;28;20147;-63
2021/07/14 09:37:03;;;;;;;10.73;6.67;;;17.00;99.90;;;;;;5040219;28;20052;-63
2021/07/14 09:39:35;;;;;;;10.02;6.00;;;17.00;99.90;;;;;;5037399;28;20090;-63
2021/07/14 09:42:04;;;;;;;10.82;5.45;;;17.20;99.90;;;;;;5038496;28;20072;-63
2021/07/14 09:44:31;;;;;;;11.15;6.28;;;17.20;99.90;;;;;;5040087;28;21418;-66
2021/07/14 09:47:12;;;;;;;13.50;5.88;;;17.20;99.90;;;;;;5038328;28;20114;-67
2021/07/14 09:49:40;;;;;;;8.98;5.57;;;17.40;99.90;;;;;;5038668;28;20653;-64
2021/07/14 09:52:14;;;;;;;9.43;5.65;;;17.30;99.90;;;;;;5037356;28;20056;-63
2021/07/14 09:54:42;;;;;;;8.32;5.15;;;17.30;99.90;;;;;;5041445;28;20052;-65
2021/07/14 09:57:15;;;;;;;8.70;5.45;;;17.50;99.90;;;;;;5039636;28;20048;-65
2021/07/14 09:59:42;;;;;;;7.90;4.97;;;17.40;99.90;;;;;;5041264;28;20489;-63
2021/07/14 10:02:12;;;;;;;8.43;4.75;;;17.40;99.90;;;;;;5039378;28;20056;-63
2021/07/14 10:04:40;;;;;;;12.27;5.50;;;17.30;99.90;;;;;;5042946;28;20169;-64
2021/07/14 10:07:09;;;;;;;8.45;5.38;;;17.30;99.90;;;;;;5041192;28;20424;-65
2021/07/14 10:09:38;;;;;;;8.63;4.88;;;17.30;99.90;;;;;;5042076;28;20149;-67
2021/07/14 10:12:24;;;;;;;8.00;5.03;;;17.30;99.90;;;;;;5046768;28;20045;-66
2021/07/14 10:14:51;;;;;;;11.65;4.78;;;17.20;99.90;;;;;;5041610;28;20044;-62
2021/07/14 10:17:37;;;;;;;6.95;4.57;;;17.40;99.90;;;;;;5033796;28;20201;-64
2021/07/14 10:20:33;;;;;;;6.93;4.20;;;17.40;99.90;;;;;;5038297;28;21350;-67
2021/07/14 10:23:03;;;;;;;8.00;3.90;;;17.60;99.90;;;;;;5039856;28;20492;-64
2021/07/14 10:25:32;;;;;;;7.75;5.00;;;17.60;99.90;;;;;;5037105;28;20072;-63
2021/07/14 10:28:01;;;;;;;7.45;4.70;;;17.50;99.90;;;;;;5038820;28;20078;-64
2021/07/14 10:30:29;;;;;;;7.80;4.60;;;17.40;99.90;;;;;;5042668;28;20049;-63
2021/07/14 10:32:56;;;;;;;10.00;4.72;;;17.50;99.90;;;;;;5040408;28;20044;-64
2021/07/14 10:35:25;;;;;;;8.25;4.65;;;17.40;99.90;;;;;;5040951;28;20040;-66
2021/07/14 10:37:53;;;;;;;6.95;4.70;;;17.50;99.90;;;;;;5041201;28;20125;-64
2021/07/14 10:40:23;;;;;;;7.70;4.88;;;17.50;99.90;;;;;;5041127;28;20055;-63
2021/07/14 10:42:53;;;;;;;6.60;4.15;;;17.60;99.90;;;;;;5034685;28;22419;-63
2021/07/14 10:45:21;;;;;;;8.55;4.32;;;17.70;99.90;;;;;;5036458;28;20064;-63
2021/07/14 10:47:50;;;;;;;7.22;5.00;;;17.50;99.90;;;;;;5033401;28;20065;-66
2021/07/14 10:50:20;;;;;;;8.18;4.90;;;17.70;99.90;;;;;;5038295;28;21761;-66
2021/07/14 10:52:47;;;;;;;7.28;4.50;;;17.80;99.90;;;;;;5033621;28;21023;-63
2021/07/14 10:55:20;;;;;;;7.72;4.50;;;17.80;99.90;;;;;;5029145;28;20044;-62
2021/07/14 10:57:47;;;;;;;5.78;4.07;;;17.90;99.90;;;;;;5029673;28;20149;-63
2021/07/14 11:00:18;;;;;;;8.73;3.55;;;18.10;99.90;;;;;;5029455;28;20040;-66
2021/07/14 11:02:46;;;;;;;6.40;3.17;;;18.10;99.90;;;;;;5033232;28;20048;-65
2021/07/14 11:05:15;;;;;;;5.07;2.97;;;18.60;99.90;;;;;;5029811;28;20044;-62
2021/07/14 11:07:44;;;;;;;5.88;3.65;;;19.30;99.90;;;;;;5035230;28;20076;-61
2021/07/14 11:10:45;;;;;;;5.70;2.75;;;19.90;99.90;;;;;;5039005;28;20110;-61
2021/07/14 11:13:29;;;;;;;4.22;2.70;;;19.90;99.90;;;;;;5031820;28;20084;-63
2021/07/14 11:15:59;;;;;;;4.57;2.55;;;20.10;99.90;;;;;;5025015;28;20316;-61
2021/07/14 11:18:40;;;;;;;4.82;2.35;;;20.00;99.90;;;;;;5032396;28;20137;-62
2021/07/14 11:21:08;;;;;;;3.72;2.25;;;20.20;99.90;;;;;;5023885;28;20053;-62
2021/07/14 11:23:35;;;;;;;4.57;2.30;;;20.30;99.90;;;;;;5033455;28;20068;-61
2021/07/14 11:26:04;;;;;;;5.63;2.47;;;20.10;99.90;;;;;;5039268;28;20049;-64
2021/07/14 11:28:33;;;;;;;4.70;2.08;;;20.10;99.90;;;;;;5040835;28;20121;-63
2021/07/14 11:31:11;;;;;;;5.18;2.55;;;19.90;99.90;;;;;;5046811;28;20382;-62
2021/07/14 11:33:40;;;;;;;3.30;2.10;;;19.70;99.90;;;;;;5047741;28;20125;-63
2021/07/14 11:36:09;;;;;;;5.38;2.30;;;20.30;99.90;;;;;;5036335;28;21012;-64
2021/07/14 11:38:45;;;;;;;3.03;2.15;;;20.60;99.90;;;;;;5045800;28;20080;-63
2021/07/14 11:41:22;;;;;;;4.30;1.83;;;20.50;99.90;;;;;;5039711;28;20136;-62
2021/07/14 11:43:52;;;;;;;5.22;2.15;;;20.50;99.90;;;;;;5045691;28;20110;-65
2021/07/14 11:46:26;;;;;;;3.30;1.98;;;20.50;99.90;;;;;;5045061;28;20131;-63
2021/07/14 11:49:04;;;;;;;2.95;1.92;;;21.30;99.90;;;;;;5046700;28;20077;-63
2021/07/14 11:51:35;;;;;;;3.85;1.80;;;22.00;99.90;;;;;;5046975;28;20512;-63
2021/07/14 11:54:18;;;;;;;2.63;1.63;;;21.70;99.90;;;;;;5047671;28;20500;-62
2021/07/14 11:56:50;;;;;;;2.83;1.50;;;21.60;99.90;;;;;;5047473;28;20457;-63
2021/07/14 11:59:21;;;;;;;2.78;1.65;;;22.00;99.90;;;;;;5044279;28;20052;-66
2021/07/14 12:01:57;;;;;;;16.65;2.33;;;21.70;99.90;;;;;;5047655;28;20044;-65
2021/07/14 12:04:25;;;;;;;3.38;1.65;;;21.30;99.90;;;;;;5047336;28;20054;-63
2021/07/14 12:06:54;;;;;;;2.90;1.52;;;21.70;99.90;;;;;;5040953;28;20187;-66
2021/07/14 12:09:43;;;;;;;2.88;1.75;;;22.30;99.90;;;;;;5044642;28;20056;-64
2021/07/14 12:12:17;;;;;;;2.85;1.88;;;22.30;99.90;;;;;;5042316;28;20560;-63
2021/07/14 12:14:46;;;;;;;2.05;1.50;;;22.40;99.90;;;;;;5038314;28;20102;-66
2021/07/14 12:17:16;;;;;;;3.75;1.60;;;22.40;99.90;;;;;;5042572;28;20101;-63
2021/07/14 12:19:44;;;;;;;2.08;1.40;;;22.00;99.90;;;;;;5045284;28;20049;-66
2021/07/14 12:22:13;;;;;;;3.65;1.70;;;21.60;99.90;;;;;;5042913;28;20516;-63
2021/07/14 12:24:43;;;;;;;3.22;1.75;;;21.30;99.90;;;;;;5043091;28;20155;-63
2021/07/14 12:27:17;;;;;;;4.32;1.60;;;21.50;99.90;;;;;;5046553;28;20501;-65
2021/07/14 12:29:54;;;;;;;2.47;1.40;;;22.00;99.90;;;;;;5045479;28;20424;-61
2021/07/14 12:32:40;;;;;;;2.85;1.65;;;21.50;99.90;;;;;;5051456;28;20133;-63
2021/07/14 12:35:11;;;;;;;3.13;1.65;;;21.40;99.90;;;;;;5050920;28;20089;-63
2021/07/14 12:37:43;;;;;;;3.53;1.80;;;20.80;99.90;;;;;;5048010;28;20106;-62
2021/07/14 12:40:12;;;;;;;3.80;1.23;;;21.30;99.90;;;;;;5049538;28;20893;-65
2021/07/14 12:42:45;;;;;;;3.50;1.55;;;21.70;99.90;;;;;;5049009;28;20044;-64
2021/07/14 12:45:25;;;;;;;4.90;1.80;;;21.40;99.90;;;;;;5048451;28;20374;-64
2021/07/14 12:47:54;;;;;;;2.65;1.70;;;21.40;99.90;;;;;;5048686;28;20157;-62
2021/07/14 12:50:22;;;;;;;4.07;1.35;;;22.40;99.90;;;;;;5047256;28;20075;-65
2021/07/14 12:52:54;;;;;;;3.22;1.20;;;23.20;99.90;;;;;;5053021;28;20048;-64
2021/07/14 12:55:22;;;;;;;2.00;1.40;;;23.20;99.90;;;;;;5055372;28;20417;-66
2021/07/14 12:57:49;;;;;;;1.55;1.17;;;23.70;99.90;;;;;;5052674;28;20406;-63
2021/07/14 13:00:17;;;;;;;3.92;1.40;;;23.60;99.90;;;;;;5053370;28;20398;-66
2021/07/14 13:02:47;;;;;;;2.28;1.55;;;23.00;99.90;;;;;;5053499;28;20052;-67
2021/07/14 13:05:18;;;;;;;2.22;1.45;;;22.60;99.90;;;;;;5049979;28;20051;-67